createdAt,value
2022-08-28T00:02:15.430Z,19.73
2022-08-28T00:05:00.826Z,19.59
2022-08-28T00:07:47.965Z,19.47
2022-08-28T00:10:32.953Z,19.54
2022-08-28T00:13:17.637Z,19.65
2022-08-28T00:16:02.507Z,19.79
2022-08-28T00:18:47.393Z,19.63
2022-08-28T00:21:32.585Z,19.86
2022-08-28T00:24:17.351Z,20.40
2022-08-28T00:27:01.965Z,20.33
2022-08-28T00:29:46.750Z,19.99
2022-08-28T00:32:31.465Z,19.73
2022-08-28T00:35:16.405Z,19.62
2022-08-28T00:38:01.207Z,19.59
2022-08-28T00:40:46.006Z,19.50
2022-08-28T00:43:31.174Z,19.44
2022-08-28T00:46:16.056Z,19.30
2022-08-28T00:49:01.167Z,19.17
2022-08-28T00:51:46.022Z,19.06
2022-08-28T00:54:30.729Z,19.33
2022-08-28T00:57:15.500Z,19.34
2022-08-28T01:00:00.230Z,19.20
2022-08-28T01:02:44.981Z,19.12
2022-08-28T01:05:29.781Z,19.14
2022-08-28T01:08:14.594Z,19.16
2022-08-28T01:10:59.693Z,19.12
2022-08-28T01:13:44.406Z,19.28
2022-08-28T01:16:31.622Z,19.33
2022-08-28T01:19:19.147Z,19.18
2022-08-28T01:22:03.943Z,19.06
2022-08-28T01:24:48.755Z,18.98
2022-08-28T01:27:33.392Z,19.16
2022-08-28T01:30:18.276Z,19.30
2022-08-28T01:33:03.007Z,19.48
2022-08-28T01:35:47.838Z,19.34
2022-08-28T01:38:32.555Z,19.10
2022-08-28T01:41:17.290Z,19.07
2022-08-28T01:44:02.109Z,19.08
2022-08-28T01:46:46.975Z,18.99
2022-08-28T01:49:32.349Z,18.79
2022-08-28T01:52:17.068Z,18.84
2022-08-28T01:55:01.908Z,19.38
2022-08-28T01:57:50.275Z,19.74
2022-08-28T02:00:34.862Z,19.97
2022-08-28T02:03:19.764Z,19.76
2022-08-28T02:06:04.424Z,19.40
2022-08-28T02:08:49.180Z,19.08
2022-08-28T02:11:33.875Z,18.92
2022-08-28T02:14:18.729Z,19.05
2022-08-28T02:17:03.430Z,19.60
2022-08-28T02:19:48.287Z,19.48
2022-08-28T02:22:33.029Z,19.87
2022-08-28T02:25:17.687Z,19.65
2022-08-28T02:28:02.641Z,20.02
2022-08-28T02:30:47.969Z,19.58
2022-08-28T02:33:32.758Z,19.42
2022-08-28T02:36:17.683Z,19.42
2022-08-28T02:39:02.558Z,19.50
2022-08-28T02:41:47.197Z,19.51
2022-08-28T02:44:31.957Z,19.50
2022-08-28T02:47:16.756Z,19.37
2022-08-28T02:50:01.318Z,19.19
2022-08-28T02:52:46.075Z,19.22
2022-08-28T02:55:34.073Z,18.92
2022-08-28T02:58:19.030Z,18.83
2022-08-28T03:01:03.835Z,19.01
2022-08-28T03:03:49.051Z,18.99
2022-08-28T03:06:33.855Z,18.99
2022-08-28T03:09:18.511Z,18.80
2022-08-28T03:12:03.315Z,18.76
2022-08-28T03:14:48.156Z,18.54
2022-08-28T03:17:33.031Z,18.40
2022-08-28T03:20:17.867Z,18.32
2022-08-28T03:23:02.745Z,18.22
2022-08-28T03:25:47.477Z,18.09
2022-08-28T03:28:32.253Z,18.03
2022-08-28T03:31:17.133Z,18.05
2022-08-28T03:34:02.172Z,17.98
2022-08-28T03:36:47.065Z,18.09
2022-08-28T03:39:31.759Z,18.31
2022-08-28T03:42:16.700Z,18.26
2022-08-28T03:45:01.384Z,18.12
2022-08-28T03:47:46.177Z,17.99
2022-08-28T03:50:31.465Z,17.86
2022-08-28T03:53:16.405Z,17.75
2022-08-28T03:56:01.273Z,17.65
2022-08-28T03:58:46.099Z,17.55
2022-08-28T04:01:30.981Z,17.49
2022-08-28T04:04:15.730Z,17.44
2022-08-28T04:07:00.644Z,17.41
2022-08-28T04:09:45.474Z,17.97
2022-08-28T04:12:30.423Z,18.87
2022-08-28T04:15:20.275Z,19.13
2022-08-28T04:18:04.959Z,19.03
2022-08-28T04:20:49.790Z,18.71
2022-08-28T04:23:34.536Z,18.57
2022-08-28T04:26:19.226Z,18.35
2022-08-28T04:29:04.062Z,18.19
2022-08-28T04:31:49.017Z,18.22
2022-08-28T04:34:33.615Z,18.40
2022-08-28T04:37:18.330Z,18.31
2022-08-28T04:40:03.176Z,18.36
2022-08-28T04:42:47.822Z,18.17
2022-08-28T04:45:32.587Z,18.03
2022-08-28T04:48:17.964Z,17.90
2022-08-28T04:51:03.129Z,17.83
2022-08-28T04:53:47.803Z,17.86
2022-08-28T04:56:32.641Z,18.09
2022-08-28T04:59:17.290Z,18.09
2022-08-28T05:02:02.142Z,18.27
2022-08-28T05:04:47.457Z,18.19
2022-08-28T05:07:32.196Z,18.16
2022-08-28T05:10:17.159Z,18.04
2022-08-28T05:13:01.844Z,17.84
2022-08-28T05:15:46.682Z,17.68
2022-08-28T05:18:31.400Z,17.84
2022-08-28T05:21:16.145Z,17.71
2022-08-28T05:24:00.871Z,17.81
2022-08-28T05:26:48.010Z,17.94
2022-08-28T05:29:33.656Z,17.98
2022-08-28T05:32:18.297Z,18.28
2022-08-28T05:35:02.939Z,18.53
2022-08-28T05:37:47.654Z,18.62
2022-08-28T05:40:32.623Z,18.51
2022-08-28T05:43:17.667Z,18.78
2022-08-28T05:46:02.606Z,19.08
2022-08-28T05:48:51.081Z,19.01
2022-08-28T05:51:35.669Z,19.20
2022-08-28T05:54:20.397Z,19.02
2022-08-28T05:57:05.057Z,18.81
2022-08-28T05:59:49.921Z,18.60
2022-08-28T06:02:34.613Z,18.94
2022-08-28T06:05:19.492Z,18.89
2022-08-28T06:08:04.225Z,18.87
2022-08-28T06:10:51.051Z,18.92
2022-08-28T06:13:36.014Z,22.90
2022-08-28T06:16:21.694Z,25.42
2022-08-28T06:19:06.521Z,27.06
2022-08-28T06:21:51.277Z,28.15
2022-08-28T06:24:35.988Z,28.89
2022-08-28T06:27:20.786Z,29.12
2022-08-28T06:30:05.403Z,30.01
2022-08-28T06:32:50.530Z,31.14
2022-08-28T06:35:37.210Z,32.17
2022-08-28T06:38:22.413Z,32.88
2022-08-28T06:41:07.300Z,33.41
2022-08-28T06:43:52.049Z,33.67
2022-08-28T06:46:36.842Z,33.66
2022-08-28T06:49:23.499Z,34.27
2022-08-28T06:52:08.340Z,34.79
2022-08-28T06:54:55.798Z,35.58
2022-08-28T06:57:40.888Z,35.06
2022-08-28T07:00:26.394Z,34.07
2022-08-28T07:03:11.215Z,33.48
2022-08-28T07:05:56.040Z,33.28
2022-08-28T07:08:40.584Z,32.99
2022-08-28T07:11:25.981Z,33.61
2022-08-28T07:14:12.033Z,33.53
2022-08-28T07:16:57.010Z,33.33
2022-08-28T07:19:41.876Z,33.18
2022-08-28T07:22:26.888Z,33.54
2022-08-28T07:25:11.901Z,33.49
2022-08-28T07:27:56.635Z,33.48
2022-08-28T07:30:41.439Z,32.47
2022-08-28T07:33:26.136Z,31.07
2022-08-28T07:36:15.796Z,29.30
2022-08-28T07:39:13.732Z,27.24
2022-08-28T07:41:58.632Z,26.00
2022-08-28T07:44:43.488Z,25.67
2022-08-28T07:47:28.227Z,25.45
2022-08-28T07:50:12.938Z,25.21
2022-08-28T07:52:57.632Z,24.82
2022-08-28T07:55:42.430Z,24.86
2022-08-28T07:58:27.384Z,24.44
2022-08-28T08:01:13.009Z,24.39
2022-08-28T08:04:01.638Z,24.39
2022-08-28T08:06:47.096Z,24.33
2022-08-28T08:09:32.000Z,23.58
2022-08-28T08:12:16.797Z,23.19
2022-08-28T08:15:02.150Z,22.94
2022-08-28T08:17:46.912Z,22.93
2022-08-28T08:20:31.613Z,22.90
2022-08-28T08:23:16.469Z,22.92
2022-08-28T08:26:01.228Z,22.56
2022-08-28T08:28:46.068Z,22.61
2022-08-28T08:31:30.894Z,22.72
2022-08-28T08:34:15.680Z,22.54
2022-08-28T08:37:00.305Z,22.56
2022-08-28T08:39:45.260Z,22.29
2022-08-28T08:42:29.991Z,22.13
2022-08-28T08:45:14.727Z,22.35
2022-08-28T08:47:59.636Z,22.37
2022-08-28T08:50:44.388Z,22.54
2022-08-28T08:53:29.233Z,22.91
2022-08-28T08:56:14.010Z,22.87
2022-08-28T08:58:58.779Z,22.84
2022-08-28T09:01:43.442Z,22.33
2022-08-28T09:04:28.204Z,22.29
2022-08-28T09:07:14.430Z,22.36
2022-08-28T09:09:59.179Z,22.59
2022-08-28T09:12:43.882Z,22.67
2022-08-28T09:15:28.636Z,22.86
2022-08-28T09:18:13.557Z,23.01
2022-08-28T09:20:58.513Z,22.86
2022-08-28T09:23:43.264Z,22.75
2022-08-28T09:26:32.213Z,22.51
2022-08-28T09:29:18.568Z,22.79
2022-08-28T09:32:03.438Z,23.03
2022-08-28T09:34:48.313Z,23.13
2022-08-28T09:37:33.635Z,23.02
2022-08-28T09:40:18.423Z,23.09
2022-08-28T09:43:03.589Z,23.31
2022-08-28T09:45:48.357Z,23.43
2022-08-28T09:48:33.116Z,22.93
2022-08-28T09:51:17.861Z,22.65
2022-08-28T09:54:02.557Z,22.71
2022-08-28T09:56:47.310Z,22.88
2022-08-28T09:59:32.105Z,22.97
2022-08-28T10:02:16.830Z,22.99
2022-08-28T10:05:01.526Z,23.09
2022-08-28T10:07:46.429Z,23.01
2022-08-28T10:10:31.127Z,23.17
2022-08-28T10:13:15.902Z,23.03
2022-08-28T10:16:00.743Z,23.21
2022-08-28T10:18:45.421Z,23.11
2022-08-28T10:21:30.304Z,23.17
2022-08-28T10:24:15.168Z,23.43
2022-08-28T10:27:09.800Z,23.71
2022-08-28T10:29:54.636Z,23.27
2022-08-28T10:32:39.602Z,23.46
2022-08-28T10:35:24.408Z,23.22
2022-08-28T10:38:09.571Z,23.13
2022-08-28T10:40:54.654Z,23.31
2022-08-28T10:43:39.346Z,23.42
2022-08-28T10:46:27.146Z,23.51
2022-08-28T10:49:12.374Z,23.28
2022-08-28T10:51:57.247Z,23.48
2022-08-28T10:54:42.378Z,22.98
2022-08-28T10:57:27.127Z,23.16
2022-08-28T11:00:12.015Z,23.16
2022-08-28T11:02:56.914Z,23.15
2022-08-28T11:05:49.404Z,23.27
2022-08-28T11:08:38.462Z,23.60
2022-08-28T11:11:23.250Z,23.77
2022-08-28T11:14:07.994Z,23.83
2022-08-28T11:16:52.894Z,23.72
2022-08-28T11:19:43.395Z,23.48
2022-08-28T11:22:29.472Z,23.80
2022-08-28T11:25:15.237Z,23.97
2022-08-28T11:27:59.972Z,23.93
2022-08-28T11:30:44.819Z,24.25
2022-08-28T11:33:29.692Z,24.07
2022-08-28T11:36:14.418Z,24.33
2022-08-28T11:38:59.638Z,24.44
2022-08-28T11:41:44.433Z,24.23
2022-08-28T11:44:29.200Z,24.30
2022-08-28T11:47:14.039Z,24.18
2022-08-28T11:49:59.240Z,24.01
2022-08-28T11:52:44.001Z,24.13
2022-08-28T11:55:29.818Z,24.15
2022-08-28T11:58:14.513Z,23.99
2022-08-28T12:00:59.378Z,24.06
2022-08-28T12:03:44.239Z,24.13
2022-08-28T12:06:29.721Z,24.21
2022-08-28T12:09:15.589Z,24.49
2022-08-28T12:12:00.709Z,24.49
2022-08-28T12:14:45.586Z,24.39
2022-08-28T12:17:31.435Z,24.60
2022-08-28T12:20:16.718Z,24.56
2022-08-28T12:23:01.567Z,24.64
2022-08-28T12:25:46.308Z,24.52
2022-08-28T12:28:30.944Z,24.15
2022-08-28T12:31:15.893Z,24.14
2022-08-28T12:34:00.696Z,24.30
2022-08-28T12:36:50.127Z,24.39
2022-08-28T12:39:36.879Z,24.83
2022-08-28T12:42:21.704Z,24.74
2022-08-28T12:45:06.411Z,24.77
2022-08-28T12:47:51.258Z,24.72
2022-08-28T12:50:35.973Z,24.84
2022-08-28T12:53:20.807Z,24.85
2022-08-28T12:56:05.582Z,24.64
2022-08-28T12:58:50.305Z,24.56
2022-08-28T13:01:35.189Z,24.50
2022-08-28T13:04:20.327Z,24.41
2022-08-28T13:07:05.171Z,24.44
2022-08-28T13:09:49.917Z,24.48
2022-08-28T13:12:54.986Z,24.41
2022-08-28T13:15:39.641Z,24.59
2022-08-28T13:18:24.577Z,24.40
2022-08-28T13:21:09.408Z,24.45
2022-08-28T13:23:54.112Z,24.47
2022-08-28T13:26:38.920Z,24.42
2022-08-28T13:29:23.690Z,24.22
2022-08-28T13:32:09.605Z,24.47
2022-08-28T13:34:54.344Z,24.52
2022-08-28T13:37:38.982Z,24.69
2022-08-28T13:40:56.501Z,24.71
2022-08-28T13:43:28.460Z,24.77
2022-08-28T13:46:13.523Z,24.75
2022-08-28T13:48:58.699Z,24.84
2022-08-28T13:51:43.744Z,24.87
2022-08-28T13:54:28.851Z,24.98
2022-08-28T13:57:13.776Z,25.10
2022-08-28T13:59:59.812Z,25.29
2022-08-28T14:02:44.583Z,25.55
2022-08-28T14:05:29.765Z,25.60
2022-08-28T14:08:14.525Z,25.73
2022-08-28T14:10:59.234Z,25.50
2022-08-28T14:13:47.369Z,25.32
2022-08-28T14:16:40.424Z,25.49
2022-08-28T14:19:25.518Z,25.66
2022-08-28T14:22:11.219Z,25.80
2022-08-28T14:24:55.950Z,25.96
2022-08-28T14:27:40.759Z,26.03
2022-08-28T14:30:25.481Z,26.07
2022-08-28T14:33:10.279Z,26.09
2022-08-28T14:35:55.105Z,26.06
2022-08-28T14:38:39.864Z,26.05
2022-08-28T14:41:24.740Z,25.73
2022-08-28T14:44:09.471Z,25.68
2022-08-28T14:46:56.062Z,25.38
2022-08-28T14:49:42.303Z,25.44
2022-08-28T14:52:27.497Z,25.36
2022-08-28T14:55:12.415Z,25.49
2022-08-28T14:58:03.810Z,25.58
2022-08-28T15:00:48.592Z,25.52
2022-08-28T15:03:33.292Z,25.62
2022-08-28T15:06:18.398Z,25.58
2022-08-28T15:09:03.249Z,25.50
2022-08-28T15:11:47.840Z,25.39
2022-08-28T15:14:32.675Z,25.35
2022-08-28T15:17:17.412Z,25.42
2022-08-28T15:20:02.257Z,25.43
2022-08-28T15:22:47.460Z,25.45
2022-08-28T15:25:32.191Z,25.52
2022-08-28T15:28:16.947Z,25.51
2022-08-28T15:31:01.586Z,25.49
2022-08-28T15:33:46.446Z,25.50
2022-08-28T15:36:31.080Z,25.44
2022-08-28T15:39:17.869Z,25.41
2022-08-28T15:42:02.676Z,25.40
2022-08-28T15:44:47.345Z,25.50
2022-08-28T15:47:32.228Z,25.48
2022-08-28T15:50:17.005Z,25.51
2022-08-28T15:53:11.864Z,25.49
2022-08-28T15:55:57.017Z,25.37
2022-08-28T15:58:41.769Z,25.31
2022-08-28T16:01:26.487Z,25.18
2022-08-28T16:04:11.784Z,25.23
2022-08-28T16:07:00.342Z,25.27
2022-08-28T16:09:45.707Z,25.20
2022-08-28T16:12:30.404Z,25.07
2022-08-28T16:15:19.300Z,25.01
2022-08-28T16:18:06.040Z,24.91
2022-08-28T16:20:50.890Z,24.83
2022-08-28T16:23:35.681Z,24.83
2022-08-28T16:26:20.566Z,24.78
2022-08-28T16:29:05.355Z,24.77
2022-08-28T16:31:50.352Z,24.66
2022-08-28T16:34:35.453Z,24.64
2022-08-28T16:37:23.217Z,24.64
2022-08-28T16:40:08.509Z,24.64
2022-08-28T16:42:53.120Z,24.68
2022-08-28T16:45:37.929Z,24.60
2022-08-28T16:48:22.568Z,24.58
2022-08-28T16:51:07.285Z,24.63
2022-08-28T16:53:51.918Z,24.72
2022-08-28T16:56:36.729Z,24.73
2022-08-28T16:59:23.375Z,24.82
2022-08-28T17:02:09.353Z,24.85
2022-08-28T17:04:58.189Z,24.80
2022-08-28T17:07:42.969Z,24.61
2022-08-28T17:10:27.671Z,24.62
2022-08-28T17:13:12.515Z,24.62
2022-08-28T17:15:57.197Z,24.60
2022-08-28T17:18:47.417Z,24.64
2022-08-28T17:21:36.840Z,24.60
2022-08-28T17:24:21.510Z,24.56
2022-08-28T17:27:06.322Z,24.63
2022-08-28T17:29:51.156Z,24.64
2022-08-28T17:32:35.885Z,24.52
2022-08-28T17:35:20.711Z,24.41
2022-08-28T17:38:08.465Z,24.36
2022-08-28T17:40:53.365Z,24.22
2022-08-28T17:43:38.046Z,24.23
2022-08-28T17:46:22.814Z,24.14
2022-08-28T17:49:07.963Z,24.03
2022-08-28T17:51:52.626Z,23.75
2022-08-28T17:54:37.660Z,23.45
2022-08-28T17:57:22.402Z,23.24
2022-08-28T18:00:07.127Z,23.28
2022-08-28T18:02:51.896Z,23.34
2022-08-28T18:05:36.642Z,23.32
2022-08-28T18:08:21.473Z,23.28
2022-08-28T18:11:06.259Z,23.24
2022-08-28T18:13:51.025Z,23.34
2022-08-28T18:16:35.869Z,23.35
2022-08-28T18:19:21.299Z,23.28
2022-08-28T18:22:06.684Z,23.18
2022-08-28T18:24:51.455Z,23.29
2022-08-28T18:27:36.325Z,23.36
2022-08-28T18:30:21.154Z,23.39
2022-08-28T18:33:05.839Z,23.42
2022-08-28T18:35:50.616Z,23.38
2022-08-28T18:38:35.436Z,23.35
2022-08-28T18:41:20.124Z,23.37
2022-08-28T18:44:04.979Z,23.22
2022-08-28T18:46:51.106Z,23.16
2022-08-28T18:49:35.805Z,22.98
2022-08-28T18:52:20.540Z,22.85
2022-08-28T18:55:05.413Z,22.85
2022-08-28T18:57:50.089Z,22.79
2022-08-28T19:00:37.035Z,22.68
2022-08-28T19:03:21.833Z,22.53
2022-08-28T19:06:06.577Z,22.44
2022-08-28T19:08:51.323Z,22.27
2022-08-28T19:11:36.063Z,22.18
2022-08-28T19:14:20.876Z,22.08
2022-08-28T19:17:05.654Z,21.90
2022-08-28T19:19:50.614Z,21.76
2022-08-28T19:22:35.386Z,21.67
2022-08-28T19:25:28.559Z,21.64
2022-08-28T19:28:14.334Z,21.57
2022-08-28T19:30:59.579Z,21.53
2022-08-28T19:33:44.181Z,21.45
2022-08-28T19:36:28.902Z,21.43
2022-08-28T19:39:13.699Z,21.50
2022-08-28T19:41:58.549Z,21.51
2022-08-28T19:44:44.059Z,21.58
2022-08-28T19:47:33.984Z,21.67
2022-08-28T19:50:20.520Z,21.70
2022-08-28T19:53:05.249Z,21.63
2022-08-28T19:55:50.011Z,21.53
2022-08-28T19:58:34.933Z,21.45
2022-08-28T20:01:19.742Z,21.36
2022-08-28T20:04:04.427Z,21.22
2022-08-28T20:06:49.240Z,21.12
2022-08-28T20:09:34.053Z,21.07
2022-08-28T20:12:18.741Z,21.03
2022-08-28T20:15:04.005Z,20.97
2022-08-28T20:17:49.854Z,20.86
2022-08-28T20:20:35.204Z,20.65
2022-08-28T20:23:20.033Z,20.61
2022-08-28T20:26:04.721Z,20.54
2022-08-28T20:28:49.604Z,20.55
2022-08-28T20:31:34.860Z,20.51
2022-08-28T20:34:19.671Z,20.52
2022-08-28T20:37:04.394Z,20.51
2022-08-28T20:39:49.273Z,20.60
2022-08-28T20:42:33.977Z,20.52
2022-08-28T20:45:18.677Z,20.65
2022-08-28T20:48:03.618Z,20.59
2022-08-28T20:50:48.481Z,20.59
2022-08-28T20:53:37.462Z,20.51
2022-08-28T20:56:23.145Z,20.46
2022-08-28T20:59:07.922Z,20.42
2022-08-28T21:01:52.681Z,20.50
2022-08-28T21:04:38.800Z,20.81
2022-08-28T21:07:24.135Z,21.00
2022-08-28T21:10:08.810Z,21.08
2022-08-28T21:12:53.717Z,20.98
2022-08-28T21:15:38.518Z,20.91
2022-08-28T21:18:23.563Z,20.92
2022-08-28T21:21:08.912Z,20.95
2022-08-28T21:23:54.129Z,20.78
2022-08-28T21:26:38.927Z,20.74
2022-08-28T21:29:23.735Z,20.79
2022-08-28T21:32:08.534Z,20.76
2022-08-28T21:34:53.229Z,20.65
2022-08-28T21:37:38.089Z,20.58
2022-08-28T21:40:22.920Z,20.50
2022-08-28T21:43:08.130Z,20.41
2022-08-28T21:45:53.026Z,20.33
2022-08-28T21:48:37.606Z,20.14
2022-08-28T21:51:22.374Z,19.99
2022-08-28T21:54:08.533Z,19.89
2022-08-28T21:56:58.738Z,19.81
2022-08-28T21:59:43.952Z,19.71
2022-08-28T22:02:29.218Z,19.65
2022-08-28T22:05:14.421Z,19.57
2022-08-28T22:07:59.190Z,19.71
2022-08-28T22:10:43.816Z,19.93
2022-08-28T22:13:28.527Z,20.23
2022-08-28T22:16:13.258Z,20.73
2022-08-28T22:18:58.039Z,20.73
2022-08-28T22:21:42.728Z,20.94
2022-08-28T22:24:27.356Z,21.01
2022-08-28T22:27:12.025Z,20.81
2022-08-28T22:29:56.665Z,20.69
2022-08-28T22:32:41.435Z,20.52
2022-08-28T22:35:26.209Z,20.33
2022-08-28T22:38:10.985Z,20.36
2022-08-28T22:40:55.860Z,20.53
2022-08-28T22:43:40.674Z,20.48
2022-08-28T22:46:25.323Z,20.52
2022-08-28T22:49:10.122Z,20.36
2022-08-28T22:51:54.912Z,20.37
2022-08-28T22:54:40.083Z,20.32
2022-08-28T22:57:24.810Z,20.18
2022-08-28T23:00:09.397Z,20.37
2022-08-28T23:02:54.149Z,20.20
2022-08-28T23:05:39.325Z,19.99
2022-08-28T23:08:23.977Z,20.04
2022-08-28T23:11:08.704Z,20.04
2022-08-28T23:13:53.501Z,19.92
2022-08-28T23:16:38.209Z,19.81
2022-08-28T23:19:24.005Z,19.66
2022-08-28T23:22:08.812Z,19.75
2022-08-28T23:24:53.546Z,19.71
2022-08-28T23:27:38.236Z,19.56
2022-08-28T23:30:23.005Z,19.44
2022-08-28T23:33:08.566Z,19.34
2022-08-28T23:35:53.431Z,19.31
2022-08-28T23:38:40.593Z,19.45
2022-08-28T23:41:28.047Z,19.57
2022-08-28T23:44:13.297Z,20.10
2022-08-28T23:46:58.134Z,20.23
2022-08-28T23:49:43.463Z,20.08
2022-08-28T23:52:29.314Z,20.00
2022-08-28T23:55:14.540Z,20.00
2022-08-28T23:57:59.261Z,20.11
